Time;durP1;ratioP1;P1;durP2;ratioP2;P2;SDS_P1;SDS_P2;PMS_P1;PMS_P2;Temp;Humidity;BMP_temperature;BMP_pressure;BME280_temperature;BME280_humidity;BME280_pressure;Samples;Min_cycle;Max_cycle;Signal;HPM_P1;HPM_P2
2023/09/19 07:18:45;;;;;;;20.48;3.10;;;19.30;90.40;;;;;;7375334;19;20007;-81
2023/09/19 07:21:39;;;;;;;8.93;2.22;;;19.30;90.30;;;;;;7384993;19;20234;-84
2023/09/19 07:24:10;;;;;;;19.40;2.70;;;19.30;90.10;;;;;;7383074;19;20007;-80
2023/09/19 07:33:13;;;;;;;9.45;2.25;;;19.60;90.00;;;;;;7401070;19;20011;-82
2023/09/19 08:09:00;;;;;;;15.10;2.50;;;19.70;89.80;;;;;;6171472;19;17865808;-82
2023/09/19 08:12:20;;;;;;;13.73;2.70;;;19.80;88.70;;;;;;7438320;19;20007;-85
2023/09/19 08:18:07;;;;;;;14.45;2.20;;;19.80;88.60;;;;;;7414220;19;20022;-81
2023/09/19 08:20:37;;;;;;;13.02;2.50;;;19.90;89.10;;;;;;7412826;19;20003;-80
2023/09/19 08:43:24;;;;;;;16.60;2.55;;;19.80;89.50;;;;;;7417716;19;20353;-82
2023/09/19 08:46:03;;;;;;;6.57;1.73;;;20.10;88.90;;;;;;7417867;19;20003;-82
2023/09/19 08:49:01;;;;;;;12.05;2.33;;;20.10;89.10;;;;;;7417680;19;20261;-82
2023/09/19 08:52:00;;;;;;;11.38;2.55;;;20.10;89.20;;;;;;7417096;19;20003;-83
2023/09/19 08:58:22;;;;;;;12.00;2.58;;;19.90;88.40;;;;;;7426546;19;20054;-83
2023/09/19 09:01:01;;;;;;;10.32;2.08;;;19.60;88.50;;;;;;7417072;19;20301;-81
2023/09/19 09:06:53;;;;;;;10.87;2.07;;;19.40;89.00;;;;;;7420177;19;20046;-84
2023/09/19 09:09:28;;;;;;;12.07;2.20;;;19.60;88.70;;;;;;7424070;19;20007;-79
2023/09/19 09:18:34;;;;;;;9.38;1.90;;;19.50;88.30;;;;;;7432790;19;20041;-79
2023/09/19 09:21:03;;;;;;;11.70;1.75;;;19.50;87.50;;;;;;7415512;19;20007;-79
2023/09/19 09:26:47;;;;;;;13.10;1.75;;;19.80;85.70;;;;;;7419178;19;20395;-80
2023/09/19 09:29:16;;;;;;;12.23;1.75;;;19.60;84.50;;;;;;7440274;19;20003;-82
2023/09/19 09:53:53;;;;;;;14.18;2.25;;;19.90;83.00;;;;;;7416178;19;20041;-80
2023/09/19 09:56:35;;;;;;;5.70;1.60;;;20.00;83.80;;;;;;7438069;19;20009;-88
2023/09/19 09:59:17;;;;;;;10.10;1.98;;;19.70;84.00;;;;;;7414825;19;20010;-81
2023/09/19 10:01:58;;;;;;;9.40;1.90;;;19.70;84.20;;;;;;7415107;19;20018;-80
2023/09/19 10:04:51;;;;;;;8.07;1.73;;;19.80;84.30;;;;;;7418041;19;20006;-83
2023/09/19 10:10:53;;;;;;;10.73;1.77;;;19.90;84.50;;;;;;7416195;19;20010;-82
2023/09/19 10:13:24;;;;;;;17.50;2.00;;;20.10;84.90;;;;;;7414587;19;20085;-81
2023/09/19 10:15:54;;;;;;;;;;;20.30;84.80;;;;;;7414294;19;20378;-81
2023/09/19 10:18:31;;;;;;;12.30;1.45;;;20.40;83.40;;;;;;7413980;19;20488;-82
2023/09/19 10:21:06;;;;;;;6.45;1.50;;;20.40;83.20;;;;;;7414780;19;20074;-81
2023/09/19 10:30:20;;;;;;;8.15;1.48;;;20.50;82.70;;;;;;7441823;19;20157;-85
2023/09/19 10:32:52;;;;;;;8.88;1.85;;;20.70;82.00;;;;;;7413861;19;20740;-78
2023/09/19 10:35:31;;;;;;;7.95;1.42;;;20.70;82.40;;;;;;7435170;19;20370;-84
2023/09/19 10:44:45;;;;;;;4.30;1.48;;;21.10;81.20;;;;;;7308768;19;2004456;-78
2023/09/19 10:47:19;;;;;;;8.02;1.55;;;21.20;81.40;;;;;;7436142;19;20444;-80
2023/09/19 10:50:32;;;;;;;21.42;1.83;;;21.10;82.10;;;;;;7415410;19;20011;-82
2023/09/19 10:58:56;;;;;;;8.65;1.40;;;21.40;82.00;;;;;;7438283;19;20356;-78
2023/09/19 11:01:27;;;;;;;8.20;1.60;;;21.20;80.50;;;;;;7415496;19;20274;-77
2023/09/19 11:04:27;;;;;;;6.05;1.40;;;21.30;81.20;;;;;;7416626;19;20002;-78
2023/09/19 11:07:08;;;;;;;3.47;1.45;;;21.10;80.20;;;;;;7416120;19;20020;-77
2023/09/19 11:09:48;;;;;;;9.13;1.42;;;21.30;80.10;;;;;;7418962;19;20011;-80
2023/09/19 11:16:16;;;;;;;4.80;1.13;;;21.20;82.10;;;;;;7461567;19;19979;-83
2023/09/19 11:28:53;;;;;;;5.87;1.63;;;21.80;79.10;;;;;;7438384;19;20047;-82
2023/09/19 11:40:15;;;;;;;9.30;1.83;;;21.70;79.50;;;;;;7412741;19;20082;-79
2023/09/19 11:42:53;;;;;;;4.03;1.20;;;21.60;80.20;;;;;;7412872;19;20007;-79
2023/09/19 11:45:57;;;;;;;8.60;1.90;;;21.50;81.10;;;;;;7412997;19;20010;-76
2023/09/19 11:48:29;;;;;;;6.97;1.88;;;21.70;81.30;;;;;;7410913;19;20268;-74
2023/09/19 11:51:00;;;;;;;4.55;1.70;;;21.70;81.10;;;;;;7409439;19;20007;-75
2023/09/19 11:53:37;;;;;;;11.80;2.20;;;21.70;81.70;;;;;;7409841;19;20014;-74
2023/09/19 11:56:10;;;;;;;6.53;1.65;;;21.60;81.70;;;;;;7431740;19;20105;-76
2023/09/19 11:58:43;;;;;;;7.22;1.80;;;21.50;82.50;;;;;;7408031;19;20019;-77
2023/09/19 12:08:08;;;;;;;10.05;1.98;;;21.40;83.40;;;;;;7443111;19;20390;-82
2023/09/19 12:11:21;;;;;;;8.18;2.10;;;21.60;83.50;;;;;;7395098;19;20006;-82
2023/09/19 12:17:45;;;;;;;9.65;2.05;;;21.90;81.70;;;;;;7385130;19;20007;-83
2023/09/19 13:00:24;;;;;;;12.00;2.17;;;22.70;76.80;;;;;;7393741;19;20368;-78
2023/09/19 13:03:24;;;;;;;14.45;1.90;;;22.60;77.50;;;;;;7388019;19;20011;-78
2023/09/19 13:56:39;;;;;;;5.22;1.50;;;22.30;78.10;;;;;;7358264;19;20081;-84
2023/09/19 13:59:23;;;;;;;9.80;1.98;;;22.40;77.80;;;;;;7401477;19;20239;-81
2023/09/19 14:08:20;;;;;;;7.82;1.85;;;22.40;78.00;;;;;;7404544;19;19983;-78
2023/09/19 14:11:11;;;;;;;9.50;2.10;;;22.50;78.30;;;;;;7384459;19;20240;-79
2023/09/19 14:13:51;;;;;;;6.75;1.70;;;22.60;77.80;;;;;;7386335;19;20050;-78
2023/09/19 14:16:41;;;;;;;5.67;1.80;;;22.70;77.80;;;;;;7387092;19;20010;-81
2023/09/19 14:19:13;;;;;;;5.93;1.90;;;22.90;77.90;;;;;;7386278;19;20010;-77
2023/09/19 14:21:50;;;;;;;11.15;2.10;;;22.80;77.30;;;;;;7386472;19;20216;-80
2023/09/19 14:46:46;;;;;;;7.95;2.03;;;22.90;78.00;;;;;;7356309;19;20014;-74
2023/09/19 16:11:16;;;;;;;3.88;1.60;;;24.00;75.90;;;;;;7371169;19;20007;-82
2023/09/19 16:16:49;;;;;;;8.73;1.80;;;23.80;76.50;;;;;;7410169;19;20375;-81
2023/09/19 16:19:28;;;;;;;6.13;1.70;;;23.80;76.70;;;;;;7386638;19;20069;-79
2023/09/19 17:11:34;;;;;;;6.95;2.10;;;23.30;79.80;;;;;;7366957;19;20015;-77
2023/09/19 17:14:09;;;;;;;5.50;2.08;;;23.20;80.20;;;;;;7406812;19;20086;-79
2023/09/19 17:16:44;;;;;;;8.57;2.10;;;23.00;80.80;;;;;;7388228;19;20235;-78
2023/09/19 17:19:13;;;;;;;10.13;2.38;;;23.10;80.70;;;;;;7383886;19;20029;-76
2023/09/19 17:21:41;;;;;;;10.60;2.30;;;23.00;80.80;;;;;;7381660;19;20414;-76
2023/09/19 17:24:11;;;;;;;13.52;2.50;;;22.90;81.30;;;;;;7382276;19;20006;-76
2023/09/19 17:26:42;;;;;;;9.55;2.33;;;22.90;81.30;;;;;;7382715;19;20007;-76
2023/09/19 17:29:12;;;;;;;8.35;2.20;;;22.90;81.30;;;;;;7410915;19;20002;-76
2023/09/19 17:31:41;;;;;;;9.48;1.95;;;22.90;81.10;;;;;;7387294;19;20374;-76
2023/09/19 17:34:09;;;;;;;15.93;2.65;;;23.00;81.10;;;;;;7388653;19;20003;-77
2023/09/19 17:36:38;;;;;;;9.68;2.00;;;22.90;81.50;;;;;;7387893;19;20010;-77
2023/09/19 17:39:09;;;;;;;12.88;2.53;;;22.90;81.50;;;;;;7381829;19;20007;-76
2023/09/19 17:41:38;;;;;;;11.82;2.67;;;22.90;81.60;;;;;;7381035;19;20014;-76
2023/09/19 17:44:11;;;;;;;7.80;2.70;;;22.90;81.60;;;;;;7401927;19;20271;-77
2023/09/19 17:46:40;;;;;;;14.15;2.85;;;22.90;81.60;;;;;;7380026;19;20329;-77
2023/09/19 17:49:09;;;;;;;12.25;2.80;;;23.00;81.70;;;;;;7380632;19;20086;-77
2023/09/19 17:51:39;;;;;;;6.57;2.28;;;22.90;81.70;;;;;;7380435;19;20014;-77
2023/09/19 17:54:07;;;;;;;8.95;2.60;;;22.90;82.00;;;;;;7380643;19;20007;-77
2023/09/19 17:56:37;;;;;;;11.07;2.65;;;22.90;82.80;;;;;;7381004;19;20007;-79
2023/09/19 17:59:08;;;;;;;15.85;2.58;;;22.80;82.50;;;;;;7400984;19;20010;-76
2023/09/19 18:01:37;;;;;;;10.48;1.90;;;22.80;82.40;;;;;;7379842;19;20725;-78
2023/09/19 18:04:07;;;;;;;12.10;2.97;;;22.80;82.30;;;;;;7379878;19;20007;-76
2023/09/19 18:06:37;;;;;;;12.63;2.70;;;22.80;82.30;;;;;;7379425;19;20007;-77
2023/09/19 18:09:07;;;;;;;6.68;2.45;;;22.80;82.60;;;;;;7379996;19;20412;-77
2023/09/19 18:11:36;;;;;;;12.90;2.63;;;22.80;82.60;;;;;;7378551;19;20018;-77
2023/09/19 18:14:04;;;;;;;11.50;2.50;;;22.80;82.60;;;;;;7401808;19;20024;-77
2023/09/19 18:16:37;;;;;;;8.95;3.13;;;22.80;83.50;;;;;;7379360;19;20007;-77
2023/09/19 18:19:08;;;;;;;10.73;2.40;;;22.70;83.00;;;;;;7378465;19;20006;-76
2023/09/19 18:21:37;;;;;;;10.45;2.10;;;22.70;83.40;;;;;;7380120;19;20002;-77
2023/09/19 18:24:10;;;;;;;4.75;2.45;;;22.70;83.20;;;;;;7379864;19;20006;-76
2023/09/19 18:26:38;;;;;;;7.45;2.45;;;22.70;83.10;;;;;;7384057;19;20013;-76
2023/09/19 18:29:07;;;;;;;8.23;2.63;;;22.70;83.00;;;;;;7401677;19;20009;-75
2023/09/19 18:31:39;;;;;;;11.73;2.85;;;22.70;83.20;;;;;;7379371;19;20063;-79
2023/09/19 18:34:08;;;;;;;9.05;2.75;;;22.70;83.10;;;;;;7380451;19;20681;-77
2023/09/19 18:36:39;;;;;;;8.15;2.28;;;22.60;83.10;;;;;;7379913;19;19998;-78
2023/09/19 18:39:12;;;;;;;5.10;2.33;;;22.70;83.50;;;;;;7379869;19;20356;-77
2023/09/19 18:41:44;;;;;;;8.40;2.20;;;22.60;83.40;;;;;;7380717;19;20038;-78
2023/09/19 18:44:13;;;;;;;11.45;2.95;;;22.70;83.70;;;;;;7400346;19;19999;-77
2023/09/19 18:46:44;;;;;;;10.75;2.67;;;22.70;84.00;;;;;;7378453;19;19999;-77
2023/09/19 18:49:46;;;;;;;6.72;2.33;;;22.60;83.80;;;;;;7378868;19;20523;-77
2023/09/19 18:52:15;;;;;;;6.47;2.83;;;22.60;83.90;;;;;;7379147;19;20022;-78
2023/09/19 18:54:46;;;;;;;12.50;2.60;;;22.60;83.90;;;;;;7379418;19;20315;-77
2023/09/19 18:57:17;;;;;;;10.37;2.80;;;22.60;84.00;;;;;;7380219;19;20066;-77
2023/09/19 18:59:47;;;;;;;7.55;2.50;;;22.60;84.10;;;;;;7377588;19;20292;-78
2023/09/19 19:02:22;;;;;;;7.05;2.22;;;22.60;84.10;;;;;;7399345;19;20071;-77
2023/09/19 19:04:52;;;;;;;8.65;2.47;;;22.40;84.40;;;;;;7378358;19;20003;-78
2023/09/19 19:07:21;;;;;;;7.57;2.25;;;22.50;84.70;;;;;;7377812;19;19998;-77
2023/09/19 19:09:51;;;;;;;11.50;2.45;;;22.50;84.70;;;;;;7376777;19;20025;-80
2023/09/19 19:12:20;;;;;;;9.95;2.83;;;22.40;84.70;;;;;;7380943;19;20056;-79
2023/09/19 19:14:49;;;;;;;4.75;1.95;;;22.50;84.90;;;;;;7380373;19;20025;-77
2023/09/19 19:17:21;;;;;;;9.52;2.80;;;22.50;84.90;;;;;;7401204;19;20354;-79
2023/09/19 19:19:51;;;;;;;10.05;2.30;;;22.50;85.10;;;;;;7381375;19;19999;-77
2023/09/19 19:22:20;;;;;;;9.50;2.65;;;22.50;85.30;;;;;;7385854;19;20002;-76
2023/09/19 19:24:51;;;;;;;7.05;2.25;;;22.50;85.30;;;;;;7387966;19;20353;-79
2023/09/19 19:27:20;;;;;;;12.30;3.15;;;22.50;85.40;;;;;;7387234;19;20003;-81
2023/09/19 19:29:50;;;;;;;9.00;2.25;;;22.60;86.10;;;;;;7389708;19;20024;-80
2023/09/19 19:32:25;;;;;;;9.15;2.05;;;22.60;85.60;;;;;;7419399;19;20051;-77
2023/09/19 19:34:55;;;;;;;13.00;3.13;;;22.50;85.50;;;;;;7402076;19;20006;-77
2023/09/19 19:56:42;;;;;;;7.13;2.58;;;22.50;86.60;;;;;;7372508;19;20015;-82
2023/09/19 19:59:39;;;;;;;4.32;2.15;;;22.30;87.00;;;;;;7367482;19;20293;-83
2023/09/19 20:02:18;;;;;;;12.75;2.50;;;22.40;87.10;;;;;;7408986;19;20233;-81
2023/09/19 20:04:58;;;;;;;5.55;2.42;;;22.40;87.10;;;;;;7390438;19;20018;-83
2023/09/19 20:11:28;;;;;;;6.93;2.33;;;22.40;87.10;;;;;;7387923;19;20010;-82
2023/09/19 20:20:45;;;;;;;4.70;2.15;;;22.40;87.20;;;;;;7285590;19;2004392;-83
2023/09/19 20:23:44;;;;;;;4.22;1.80;;;22.40;87.30;;;;;;7406122;19;20015;-85
2023/09/19 20:26:29;;;;;;;8.07;2.47;;;22.40;87.40;;;;;;7390295;19;20006;-80
2023/09/19 20:29:19;;;;;;;6.85;2.78;;;22.40;87.50;;;;;;7387754;19;20011;-82
2023/09/19 20:35:55;;;;;;;6.88;3.30;;;22.40;87.50;;;;;;7285389;19;2004328;-82
2023/09/19 20:41:46;;;;;;;5.10;2.10;;;22.40;87.70;;;;;;7387419;19;20078;-82
2023/09/19 20:44:58;;;;;;;;;;;;;;;;;;;;;
2023/09/19 20:47:37;;;;;;;8.57;2.00;;;22.40;87.80;;;;;;7388067;19;20981;-82
2023/09/19 20:50:22;;;;;;;5.88;1.90;;;22.40;87.70;;;;;;7410697;19;20006;-83
2023/09/19 20:52:58;;;;;;;6.38;1.48;;;22.40;87.80;;;;;;7392501;19;20017;-82
2023/09/19 20:55:42;;;;;;;7.47;2.20;;;22.40;88.30;;;;;;7392560;19;20010;-83
2023/09/19 21:12:01;;;;;;;9.48;2.10;;;22.10;89.30;;;;;;7289243;19;2004372;-82
2023/09/19 22:11:44;;;;;;;9.60;1.90;;;22.00;90.70;;;;;;7406740;19;20010;-81
2023/09/19 22:14:13;;;;;;;4.70;1.77;;;22.00;90.60;;;;;;7445151;19;20070;-81
2023/09/19 22:16:42;;;;;;;10.77;1.83;;;22.00;90.50;;;;;;7420327;19;20017;-80
2023/09/19 22:19:38;;;;;;;7.50;1.90;;;22.10;90.50;;;;;;7419700;19;20352;-83
2023/09/19 22:22:11;;;;;;;4.47;1.35;;;22.00;90.50;;;;;;7421398;19;20015;-79
2023/09/19 22:24:53;;;;;;;;;;;;;;;;;;;;;
2023/09/19 22:27:25;;;;;;;2.28;1.35;;;21.90;90.70;;;;;;7413591;19;20025;-79
2023/09/19 22:29:54;;;;;;;4.32;1.45;;;21.90;90.70;;;;;;7389681;19;20006;-78
2023/09/19 22:32:23;;;;;;;3.70;1.42;;;21.90;90.70;;;;;;7415815;19;20014;-79
2023/09/19 22:34:52;;;;;;;3.35;1.50;;;21.90;90.70;;;;;;7392069;19;20010;-78
2023/09/19 22:37:21;;;;;;;3.58;1.77;;;21.90;90.70;;;;;;7389427;19;20003;-78
2023/09/19 22:39:50;;;;;;;9.07;1.70;;;21.90;90.70;;;;;;7391560;19;20003;-79
2023/09/19 22:42:23;;;;;;;14.05;1.73;;;22.00;90.70;;;;;;7393209;19;20003;-79
2023/09/19 22:44:55;;;;;;;8.05;2.05;;;22.00;90.90;;;;;;7392142;19;20346;-79
2023/09/19 22:47:24;;;;;;;4.18;1.73;;;22.00;90.70;;;;;;7412045;19;20024;-79
2023/09/19 22:49:53;;;;;;;6.55;1.60;;;22.00;90.70;;;;;;7393170;19;20003;-78
2023/09/19 22:52:23;;;;;;;2.08;1.00;;;21.90;90.60;;;;;;7391843;19;20006;-79
2023/09/19 22:54:58;;;;;;;7.93;1.60;;;21.90;90.60;;;;;;7386790;19;20059;-79
2023/09/19 22:57:27;;;;;;;5.50;1.55;;;21.90;90.60;;;;;;7385665;19;20013;-78
2023/09/19 22:59:58;;;;;;;3.70;1.23;;;21.90;90.70;;;;;;7384277;19;20026;-78
2023/09/19 23:02:28;;;;;;;6.38;1.48;;;21.80;90.60;;;;;;7383898;19;20006;-79
2023/09/19 23:05:01;;;;;;;8.93;1.67;;;21.80;90.70;;;;;;7406566;19;20035;-78
2023/09/19 23:07:30;;;;;;;4.28;1.52;;;21.80;90.70;;;;;;7385677;19;20006;-79
2023/09/19 23:10:01;;;;;;;7.88;1.30;;;21.70;90.70;;;;;;7385463;19;20007;-79
2023/09/19 23:12:30;;;;;;;6.38;1.42;;;21.80;90.80;;;;;;7386739;19;20010;-79
2023/09/19 23:15:02;;;;;;;4.22;1.30;;;21.80;90.70;;;;;;7386837;19;20035;-79
2023/09/19 23:17:35;;;;;;;5.93;1.17;;;21.80;90.80;;;;;;7384414;19;20346;-79
2023/09/19 23:20:09;;;;;;;3.63;1.50;;;21.80;90.90;;;;;;7407821;19;20030;-79
2023/09/19 23:22:40;;;;;;;6.13;1.33;;;21.80;90.90;;;;;;7385130;19;20062;-79
2023/09/19 23:25:12;;;;;;;7.03;1.27;;;21.80;91.00;;;;;;7384759;19;20003;-78
2023/09/19 23:27:47;;;;;;;2.42;1.15;;;21.80;91.00;;;;;;7385557;19;20020;-78
2023/09/19 23:30:18;;;;;;;5.10;1.25;;;21.70;91.10;;;;;;7384429;19;20002;-78
2023/09/19 23:32:47;;;;;;;8.52;1.30;;;21.80;91.20;;;;;;7382945;19;20034;-78
2023/09/19 23:35:18;;;;;;;6.28;1.50;;;21.80;91.20;;;;;;7404713;19;20034;-78
2023/09/19 23:37:46;;;;;;;5.15;2.40;;;21.80;91.30;;;;;;7383100;19;20019;-79
2023/09/19 23:40:19;;;;;;;1.50;1.13;;;21.80;91.20;;;;;;7389695;19;20030;-79
2023/09/19 23:42:48;;;;;;;5.65;1.50;;;21.80;91.40;;;;;;7407509;19;20003;-78
2023/09/19 23:45:24;;;;;;;10.00;1.60;;;21.70;91.40;;;;;;7406887;19;20006;-77
2023/09/19 23:47:53;;;;;;;3.25;1.33;;;21.80;91.50;;;;;;7405717;19;20011;-78
2023/09/19 23:50:24;;;;;;;4.80;1.50;;;21.70;91.50;;;;;;7428686;19;20007;-79
2023/09/19 23:52:53;;;;;;;2.55;1.17;;;21.70;91.60;;;;;;7385428;19;20010;-78
2023/09/19 23:55:24;;;;;;;4.47;1.42;;;21.60;91.70;;;;;;7384156;19;20010;-78
2023/09/19 23:57:54;;;;;;;6.55;1.30;;;21.70;91.80;;;;;;7389041;19;20025;-79
